sensor_id;sensor_type;location;lat;lon;timestamp;P1;durP1;ratioP1;P2;durP2;ratioP2
505;SDS011;551;48.524;9.056;2022-11-21T00:01:31;0.87;;;0.87;;
505;SDS011;551;48.524;9.056;2022-11-21T00:03:57;1.03;;;1.00;;
505;SDS011;551;48.524;9.056;2022-11-21T00:06:22;0.90;;;0.90;;
505;SDS011;551;48.524;9.056;2022-11-21T00:08:48;1.27;;;1.00;;
505;SDS011;551;48.524;9.056;2022-11-21T00:11:14;1.10;;;0.90;;
505;SDS011;551;48.524;9.056;2022-11-21T00:13:40;2.10;;;1.13;;
505;SDS011;551;48.524;9.056;2022-11-21T00:16:10;1.20;;;1.10;;
505;SDS011;551;48.524;9.056;2022-11-21T00:18:37;1.10;;;1.00;;
505;SDS011;551;48.524;9.056;2022-11-21T00:21:04;1.17;;;0.90;;
505;SDS011;551;48.524;9.056;2022-11-21T00:23:30;1.10;;;1.00;;
505;SDS011;551;48.524;9.056;2022-11-21T00:25:56;1.00;;;1.00;;
505;SDS011;551;48.524;9.056;2022-11-21T00:28:22;1.20;;;1.10;;
505;SDS011;551;48.524;9.056;2022-11-21T00:30:47;1.00;;;0.90;;
505;SDS011;551;48.524;9.056;2022-11-21T00:33:13;3.33;;;1.00;;
505;SDS011;551;48.524;9.056;2022-11-21T00:35:38;1.80;;;1.07;;
505;SDS011;551;48.524;9.056;2022-11-21T00:38:03;2.67;;;1.33;;
505;SDS011;551;48.524;9.056;2022-11-21T00:40:29;2.50;;;0.90;;
505;SDS011;551;48.524;9.056;2022-11-21T00:42:55;2.47;;;1.20;;
505;SDS011;551;48.524;9.056;2022-11-21T00:45:23;2.57;;;1.20;;
505;SDS011;551;48.524;9.056;2022-11-21T00:47:49;3.30;;;1.00;;
505;SDS011;551;48.524;9.056;2022-11-21T00:50:14;4.53;;;1.00;;
505;SDS011;551;48.524;9.056;2022-11-21T00:52:40;1.30;;;1.20;;
505;SDS011;551;48.524;9.056;2022-11-21T00:55:05;0.93;;;0.93;;
505;SDS011;551;48.524;9.056;2022-11-21T00:57:31;1.30;;;1.20;;
505;SDS011;551;48.524;9.056;2022-11-21T00:59:56;2.00;;;1.30;;
505;SDS011;551;48.524;9.056;2022-11-21T01:02:22;1.83;;;1.03;;
505;SDS011;551;48.524;9.056;2022-11-21T01:04:47;2.50;;;1.10;;
505;SDS011;551;48.524;9.056;2022-11-21T01:07:13;1.37;;;1.30;;
505;SDS011;551;48.524;9.056;2022-11-21T01:09:39;1.97;;;1.30;;
505;SDS011;551;48.524;9.056;2022-11-21T01:12:04;1.40;;;1.30;;
505;SDS011;551;48.524;9.056;2022-11-21T01:14:30;1.60;;;1.40;;
505;SDS011;551;48.524;9.056;2022-11-21T01:16:55;1.40;;;1.30;;
505;SDS011;551;48.524;9.056;2022-11-21T01:19:21;5.70;;;2.23;;
505;SDS011;551;48.524;9.056;2022-11-21T01:21:46;4.40;;;1.83;;
505;SDS011;551;48.524;9.056;2022-11-21T01:24:12;4.67;;;1.20;;
505;SDS011;551;48.524;9.056;2022-11-21T01:26:38;1.30;;;1.20;;
505;SDS011;551;48.524;9.056;2022-11-21T01:29:03;1.40;;;1.30;;
505;SDS011;551;48.524;9.056;2022-11-21T01:31:29;6.63;;;1.47;;
505;SDS011;551;48.524;9.056;2022-11-21T01:33:56;3.67;;;1.50;;
505;SDS011;551;48.524;9.056;2022-11-21T01:36:23;1.23;;;1.17;;
505;SDS011;551;48.524;9.056;2022-11-21T01:38:51;6.63;;;1.47;;
505;SDS011;551;48.524;9.056;2022-11-21T01:41:19;3.93;;;1.23;;
505;SDS011;551;48.524;9.056;2022-11-21T01:43:46;0.97;;;0.97;;
505;SDS011;551;48.524;9.056;2022-11-21T01:46:13;4.37;;;1.63;;
505;SDS011;551;48.524;9.056;2022-11-21T01:57:06;1.20;;;1.10;;
505;SDS011;551;48.524;9.056;2022-11-21T02:02:35;2.03;;;1.37;;
505;SDS011;551;48.524;9.056;2022-11-21T02:05:04;1.30;;;1.20;;
505;SDS011;551;48.524;9.056;2022-11-21T02:07:33;2.07;;;1.30;;
505;SDS011;551;48.524;9.056;2022-11-21T02:10:05;4.43;;;1.50;;
505;SDS011;551;48.524;9.056;2022-11-21T02:12:46;3.10;;;1.57;;
505;SDS011;551;48.524;9.056;2022-11-21T02:15:14;2.40;;;1.60;;
505;SDS011;551;48.524;9.056;2022-11-21T02:17:41;3.93;;;1.27;;
505;SDS011;551;48.524;9.056;2022-11-21T02:20:08;3.10;;;1.20;;
505;SDS011;551;48.524;9.056;2022-11-21T02:25:09;1.90;;;1.43;;
505;SDS011;551;48.524;9.056;2022-11-21T02:27:38;2.33;;;1.60;;
505;SDS011;551;48.524;9.056;2022-11-21T02:30:04;1.30;;;1.20;;
505;SDS011;551;48.524;9.056;2022-11-21T02:32:33;1.90;;;1.20;;
505;SDS011;551;48.524;9.056;2022-11-21T02:35:00;2.77;;;1.43;;
505;SDS011;551;48.524;9.056;2022-11-21T02:37:26;3.23;;;1.30;;
505;SDS011;551;48.524;9.056;2022-11-21T02:39:52;4.00;;;1.50;;
505;SDS011;551;48.524;9.056;2022-11-21T02:45:08;4.27;;;1.43;;
505;SDS011;551;48.524;9.056;2022-11-21T02:47:43;1.50;;;1.40;;
505;SDS011;551;48.524;9.056;2022-11-21T02:50:15;8.20;;;1.70;;
505;SDS011;551;48.524;9.056;2022-11-21T02:52:48;4.50;;;1.80;;
505;SDS011;551;48.524;9.056;2022-11-21T02:55:13;2.50;;;1.57;;
505;SDS011;551;48.524;9.056;2022-11-21T02:57:40;2.87;;;1.80;;
505;SDS011;551;48.524;9.056;2022-11-21T03:00:06;1.50;;;1.40;;
505;SDS011;551;48.524;9.056;2022-11-21T03:02:33;4.13;;;1.40;;
505;SDS011;551;48.524;9.056;2022-11-21T03:04:59;5.90;;;1.40;;
505;SDS011;551;48.524;9.056;2022-11-21T03:07:25;3.00;;;1.90;;
505;SDS011;551;48.524;9.056;2022-11-21T03:09:51;0.97;;;0.90;;
505;SDS011;551;48.524;9.056;2022-11-21T03:12:16;2.20;;;1.10;;
505;SDS011;551;48.524;9.056;2022-11-21T03:14:42;5.33;;;1.97;;
505;SDS011;551;48.524;9.056;2022-11-21T03:17:07;4.67;;;1.30;;
505;SDS011;551;48.524;9.056;2022-11-21T03:19:33;1.93;;;1.37;;
505;SDS011;551;48.524;9.056;2022-11-21T03:21:59;2.90;;;1.27;;
505;SDS011;551;48.524;9.056;2022-11-21T03:24:24;2.47;;;1.43;;
505;SDS011;551;48.524;9.056;2022-11-21T03:26:50;2.47;;;1.20;;
505;SDS011;551;48.524;9.056;2022-11-21T03:29:15;2.70;;;1.10;;
505;SDS011;551;48.524;9.056;2022-11-21T03:31:41;0.97;;;0.90;;
505;SDS011;551;48.524;9.056;2022-11-21T03:34:06;4.97;;;1.07;;
505;SDS011;551;48.524;9.056;2022-11-21T03:36:32;0.90;;;0.90;;
505;SDS011;551;48.524;9.056;2022-11-21T03:38:58;1.67;;;0.97;;
505;SDS011;551;48.524;9.056;2022-11-21T03:41:24;1.57;;;1.47;;
505;SDS011;551;48.524;9.056;2022-11-21T03:43:54;1.10;;;0.90;;
505;SDS011;551;48.524;9.056;2022-11-21T03:46:23;0.90;;;0.90;;
505;SDS011;551;48.524;9.056;2022-11-21T03:48:49;5.10;;;0.90;;
505;SDS011;551;48.524;9.056;2022-11-21T03:51:15;2.30;;;0.90;;
505;SDS011;551;48.524;9.056;2022-11-21T03:53:44;1.83;;;0.90;;
505;SDS011;551;48.524;9.056;2022-11-21T03:56:10;2.10;;;0.90;;
505;SDS011;551;48.524;9.056;2022-11-21T03:58:36;4.30;;;0.83;;
505;SDS011;551;48.524;9.056;2022-11-21T04:01:01;2.10;;;1.17;;
505;SDS011;551;48.524;9.056;2022-11-21T04:03:27;1.20;;;0.80;;
505;SDS011;551;48.524;9.056;2022-11-21T04:05:52;1.90;;;0.80;;
505;SDS011;551;48.524;9.056;2022-11-21T04:08:18;0.80;;;0.77;;
505;SDS011;551;48.524;9.056;2022-11-21T04:10:47;1.77;;;0.80;;
505;SDS011;551;48.524;9.056;2022-11-21T04:13:13;0.80;;;0.80;;
505;SDS011;551;48.524;9.056;2022-11-21T04:15:42;0.70;;;0.70;;
505;SDS011;551;48.524;9.056;2022-11-21T04:18:08;1.27;;;0.80;;
505;SDS011;551;48.524;9.056;2022-11-21T04:20:33;3.03;;;0.80;;
505;SDS011;551;48.524;9.056;2022-11-21T04:22:59;0.70;;;0.70;;
505;SDS011;551;48.524;9.056;2022-11-21T04:25:25;0.90;;;0.80;;
505;SDS011;551;48.524;9.056;2022-11-21T04:27:50;0.80;;;0.80;;
505;SDS011;551;48.524;9.056;2022-11-21T04:30:16;1.80;;;1.27;;
505;SDS011;551;48.524;9.056;2022-11-21T04:32:41;0.70;;;0.70;;
505;SDS011;551;48.524;9.056;2022-11-21T04:35:08;0.93;;;0.70;;
505;SDS011;551;48.524;9.056;2022-11-21T04:37:33;0.80;;;0.70;;
505;SDS011;551;48.524;9.056;2022-11-21T04:39:59;0.80;;;0.70;;
505;SDS011;551;48.524;9.056;2022-11-21T04:42:25;1.03;;;0.83;;
505;SDS011;551;48.524;9.056;2022-11-21T04:44:50;0.90;;;0.90;;
505;SDS011;551;48.524;9.056;2022-11-21T04:47:16;0.80;;;0.80;;
505;SDS011;551;48.524;9.056;2022-11-21T04:49:41;0.80;;;0.80;;
505;SDS011;551;48.524;9.056;2022-11-21T04:52:06;0.90;;;0.90;;
505;SDS011;551;48.524;9.056;2022-11-21T04:54:32;1.10;;;0.90;;
505;SDS011;551;48.524;9.056;2022-11-21T04:56:58;0.87;;;0.80;;
505;SDS011;551;48.524;9.056;2022-11-21T04:59:23;0.97;;;0.80;;
505;SDS011;551;48.524;9.056;2022-11-21T05:01:48;0.70;;;0.70;;
505;SDS011;551;48.524;9.056;2022-11-21T05:04:14;0.93;;;0.90;;
505;SDS011;551;48.524;9.056;2022-11-21T05:06:39;0.97;;;0.80;;
505;SDS011;551;48.524;9.056;2022-11-21T05:09:05;1.90;;;0.80;;
505;SDS011;551;48.524;9.056;2022-11-21T05:11:30;0.70;;;0.67;;
505;SDS011;551;48.524;9.056;2022-11-21T05:14:14;0.80;;;0.80;;
505;SDS011;551;48.524;9.056;2022-11-21T05:16:40;0.87;;;0.87;;
505;SDS011;551;48.524;9.056;2022-11-21T05:19:05;0.80;;;0.80;;
505;SDS011;551;48.524;9.056;2022-11-21T05:21:32;1.90;;;1.20;;
505;SDS011;551;48.524;9.056;2022-11-21T05:23:58;0.80;;;0.80;;
505;SDS011;551;48.524;9.056;2022-11-21T05:26:23;1.00;;;1.00;;
505;SDS011;551;48.524;9.056;2022-11-21T05:28:49;1.03;;;0.87;;
505;SDS011;551;48.524;9.056;2022-11-21T05:31:14;0.90;;;0.90;;
505;SDS011;551;48.524;9.056;2022-11-21T05:33:40;1.00;;;1.00;;
505;SDS011;551;48.524;9.056;2022-11-21T05:36:05;0.90;;;0.90;;
505;SDS011;551;48.524;9.056;2022-11-21T05:38:31;1.13;;;0.90;;
505;SDS011;551;48.524;9.056;2022-11-21T05:40:56;1.07;;;0.90;;
505;SDS011;551;48.524;9.056;2022-11-21T05:43:22;1.23;;;0.93;;
505;SDS011;551;48.524;9.056;2022-11-21T05:46:06;0.93;;;0.90;;
505;SDS011;551;48.524;9.056;2022-11-21T05:48:33;4.20;;;1.20;;
505;SDS011;551;48.524;9.056;2022-11-21T05:51:00;0.90;;;0.90;;
505;SDS011;551;48.524;9.056;2022-11-21T05:53:27;1.17;;;1.07;;
505;SDS011;551;48.524;9.056;2022-11-21T05:55:53;1.20;;;1.10;;
505;SDS011;551;48.524;9.056;2022-11-21T05:58:18;0.80;;;0.80;;
505;SDS011;551;48.524;9.056;2022-11-21T06:00:44;1.40;;;1.17;;
505;SDS011;551;48.524;9.056;2022-11-21T06:03:09;3.10;;;1.30;;
505;SDS011;551;48.524;9.056;2022-11-21T06:05:58;0.90;;;0.90;;
505;SDS011;551;48.524;9.056;2022-11-21T06:08:25;1.13;;;1.03;;
505;SDS011;551;48.524;9.056;2022-11-21T06:10:51;5.00;;;2.43;;
505;SDS011;551;48.524;9.056;2022-11-21T06:13:17;3.60;;;3.30;;
505;SDS011;551;48.524;9.056;2022-11-21T06:18:17;2.37;;;2.17;;
505;SDS011;551;48.524;9.056;2022-11-21T06:20:43;1.87;;;1.77;;
505;SDS011;551;48.524;9.056;2022-11-21T06:23:09;1.27;;;1.17;;
505;SDS011;551;48.524;9.056;2022-11-21T06:25:35;1.33;;;1.23;;
505;SDS011;551;48.524;9.056;2022-11-21T06:28:00;1.67;;;1.30;;
505;SDS011;551;48.524;9.056;2022-11-21T06:30:26;2.20;;;2.00;;
505;SDS011;551;48.524;9.056;2022-11-21T06:32:51;1.77;;;1.57;;
505;SDS011;551;48.524;9.056;2022-11-21T06:35:17;2.70;;;2.10;;
505;SDS011;551;48.524;9.056;2022-11-21T06:37:42;2.33;;;1.97;;
505;SDS011;551;48.524;9.056;2022-11-21T06:40:08;1.97;;;1.83;;
505;SDS011;551;48.524;9.056;2022-11-21T06:42:34;3.33;;;2.60;;
505;SDS011;551;48.524;9.056;2022-11-21T06:45:00;3.10;;;2.27;;
505;SDS011;551;48.524;9.056;2022-11-21T06:47:25;4.27;;;3.37;;
505;SDS011;551;48.524;9.056;2022-11-21T06:49:51;5.37;;;4.87;;
505;SDS011;551;48.524;9.056;2022-11-21T06:52:16;4.60;;;3.80;;
505;SDS011;551;48.524;9.056;2022-11-21T06:54:42;5.17;;;4.13;;
505;SDS011;551;48.524;9.056;2022-11-21T06:57:07;2.17;;;1.97;;
505;SDS011;551;48.524;9.056;2022-11-21T06:59:33;1.63;;;1.53;;
505;SDS011;551;48.524;9.056;2022-11-21T07:01:59;2.23;;;1.60;;
505;SDS011;551;48.524;9.056;2022-11-21T07:04:24;2.33;;;1.33;;
505;SDS011;551;48.524;9.056;2022-11-21T07:06:50;1.70;;;1.60;;
505;SDS011;551;48.524;9.056;2022-11-21T07:09:15;2.53;;;1.60;;
505;SDS011;551;48.524;9.056;2022-11-21T07:11:41;1.60;;;1.40;;
505;SDS011;551;48.524;9.056;2022-11-21T07:14:07;2.07;;;1.50;;
505;SDS011;551;48.524;9.056;2022-11-21T07:16:32;4.67;;;1.70;;
505;SDS011;551;48.524;9.056;2022-11-21T07:18:58;2.13;;;1.60;;
505;SDS011;551;48.524;9.056;2022-11-21T07:21:24;1.80;;;1.70;;
505;SDS011;551;48.524;9.056;2022-11-21T07:23:50;1.50;;;1.40;;
505;SDS011;551;48.524;9.056;2022-11-21T07:26:15;2.57;;;1.80;;
505;SDS011;551;48.524;9.056;2022-11-21T07:28:41;2.33;;;1.80;;
505;SDS011;551;48.524;9.056;2022-11-21T07:31:07;1.60;;;1.50;;
505;SDS011;551;48.524;9.056;2022-11-21T07:33:34;3.30;;;1.80;;
505;SDS011;551;48.524;9.056;2022-11-21T07:36:01;2.60;;;1.47;;
505;SDS011;551;48.524;9.056;2022-11-21T07:38:26;2.20;;;1.80;;
505;SDS011;551;48.524;9.056;2022-11-21T07:40:52;10.30;;;2.10;;
505;SDS011;551;48.524;9.056;2022-11-21T07:43:20;4.70;;;2.27;;
505;SDS011;551;48.524;9.056;2022-11-21T07:45:46;3.50;;;2.37;;
505;SDS011;551;48.524;9.056;2022-11-21T07:48:11;2.07;;;1.70;;
505;SDS011;551;48.524;9.056;2022-11-21T07:50:37;3.07;;;1.90;;
505;SDS011;551;48.524;9.056;2022-11-21T07:53:03;2.13;;;1.93;;
505;SDS011;551;48.524;9.056;2022-11-21T07:55:30;5.33;;;1.73;;
505;SDS011;551;48.524;9.056;2022-11-21T07:57:56;2.93;;;2.00;;
505;SDS011;551;48.524;9.056;2022-11-21T08:00:23;2.47;;;1.80;;
505;SDS011;551;48.524;9.056;2022-11-21T08:02:49;3.27;;;1.80;;
505;SDS011;551;48.524;9.056;2022-11-21T08:05:15;3.60;;;2.10;;
505;SDS011;551;48.524;9.056;2022-11-21T08:07:40;5.13;;;2.30;;
505;SDS011;551;48.524;9.056;2022-11-21T08:10:06;8.27;;;3.60;;
505;SDS011;551;48.524;9.056;2022-11-21T08:12:31;25.90;;;5.37;;
505;SDS011;551;48.524;9.056;2022-11-21T08:14:57;11.10;;;4.90;;
505;SDS011;551;48.524;9.056;2022-11-21T08:17:24;8.23;;;4.93;;
505;SDS011;551;48.524;9.056;2022-11-21T08:19:50;7.90;;;4.73;;
505;SDS011;551;48.524;9.056;2022-11-21T08:22:16;10.33;;;4.43;;
505;SDS011;551;48.524;9.056;2022-11-21T08:24:41;6.03;;;2.80;;
505;SDS011;551;48.524;9.056;2022-11-21T08:27:07;8.97;;;3.43;;
505;SDS011;551;48.524;9.056;2022-11-21T08:29:32;3.30;;;2.60;;
505;SDS011;551;48.524;9.056;2022-11-21T08:31:58;7.07;;;2.47;;
505;SDS011;551;48.524;9.056;2022-11-21T08:34:23;4.07;;;2.43;;
505;SDS011;551;48.524;9.056;2022-11-21T08:36:50;6.50;;;2.87;;
505;SDS011;551;48.524;9.056;2022-11-21T08:39:15;4.43;;;2.57;;
505;SDS011;551;48.524;9.056;2022-11-21T08:41:41;5.27;;;2.70;;
505;SDS011;551;48.524;9.056;2022-11-21T08:44:25;3.03;;;2.17;;
505;SDS011;551;48.524;9.056;2022-11-21T08:46:52;3.93;;;1.83;;
505;SDS011;551;48.524;9.056;2022-11-21T08:49:18;2.80;;;1.90;;
505;SDS011;551;48.524;9.056;2022-11-21T08:51:44;4.90;;;1.90;;
505;SDS011;551;48.524;9.056;2022-11-21T08:54:13;7.63;;;2.10;;
505;SDS011;551;48.524;9.056;2022-11-21T08:56:48;5.10;;;2.47;;
505;SDS011;551;48.524;9.056;2022-11-21T08:59:15;4.87;;;1.63;;
505;SDS011;551;48.524;9.056;2022-11-21T09:01:41;4.80;;;2.23;;
505;SDS011;551;48.524;9.056;2022-11-21T09:04:07;7.60;;;2.10;;
505;SDS011;551;48.524;9.056;2022-11-21T09:06:33;5.07;;;2.10;;
505;SDS011;551;48.524;9.056;2022-11-21T09:08:59;7.33;;;3.13;;
505;SDS011;551;48.524;9.056;2022-11-21T09:11:25;6.23;;;2.50;;
505;SDS011;551;48.524;9.056;2022-11-21T09:13:51;5.10;;;2.00;;
505;SDS011;551;48.524;9.056;2022-11-21T09:16:36;2.10;;;1.77;;
505;SDS011;551;48.524;9.056;2022-11-21T09:19:21;2.10;;;1.30;;
505;SDS011;551;48.524;9.056;2022-11-21T09:21:50;1.87;;;1.50;;
505;SDS011;551;48.524;9.056;2022-11-21T09:24:17;2.30;;;1.20;;
505;SDS011;551;48.524;9.056;2022-11-21T09:26:43;2.90;;;1.67;;
505;SDS011;551;48.524;9.056;2022-11-21T09:29:09;3.03;;;1.80;;
505;SDS011;551;48.524;9.056;2022-11-21T09:31:39;2.30;;;1.30;;
505;SDS011;551;48.524;9.056;2022-11-21T09:34:05;4.32;;;1.70;;
505;SDS011;551;48.524;9.056;2022-11-21T09:36:30;3.43;;;1.80;;
505;SDS011;551;48.524;9.056;2022-11-21T09:38:56;3.23;;;1.60;;
505;SDS011;551;48.524;9.056;2022-11-21T09:46:49;3.33;;;1.70;;
505;SDS011;551;48.524;9.056;2022-11-21T09:49:24;3.00;;;1.80;;
505;SDS011;551;48.524;9.056;2022-11-21T09:51:50;3.27;;;1.60;;
505;SDS011;551;48.524;9.056;2022-11-21T09:54:19;3.73;;;1.97;;
505;SDS011;551;48.524;9.056;2022-11-21T09:56:50;3.73;;;1.70;;
505;SDS011;551;48.524;9.056;2022-11-21T10:01:51;2.33;;;1.50;;
505;SDS011;551;48.524;9.056;2022-11-21T10:04:17;3.67;;;1.70;;
505;SDS011;551;48.524;9.056;2022-11-21T10:06:57;1.90;;;1.63;;
505;SDS011;551;48.524;9.056;2022-11-21T10:12:27;4.40;;;1.73;;
505;SDS011;551;48.524;9.056;2022-11-21T10:21:29;3.80;;;1.57;;
505;SDS011;551;48.524;9.056;2022-11-21T10:26:52;4.73;;;1.83;;
505;SDS011;551;48.524;9.056;2022-11-21T10:29:32;5.20;;;1.97;;
505;SDS011;551;48.524;9.056;2022-11-21T10:32:03;1.93;;;1.83;;
505;SDS011;551;48.524;9.056;2022-11-21T10:34:45;7.03;;;1.93;;
505;SDS011;551;48.524;9.056;2022-11-21T10:37:15;5.23;;;1.77;;
505;SDS011;551;48.524;9.056;2022-11-21T10:39:51;3.57;;;2.10;;
505;SDS011;551;48.524;9.056;2022-11-21T10:45:19;2.67;;;2.00;;
505;SDS011;551;48.524;9.056;2022-11-21T10:47:46;5.40;;;2.30;;
505;SDS011;551;48.524;9.056;2022-11-21T10:53:17;3.60;;;1.73;;
505;SDS011;551;48.524;9.056;2022-11-21T10:56:08;3.50;;;1.70;;
505;SDS011;551;48.524;9.056;2022-11-21T10:58:42;3.57;;;1.73;;
505;SDS011;551;48.524;9.056;2022-11-21T11:01:19;3.70;;;1.50;;
505;SDS011;551;48.524;9.056;2022-11-21T11:06:38;4.00;;;1.80;;
505;SDS011;551;48.524;9.056;2022-11-21T11:09:06;2.93;;;2.17;;
505;SDS011;551;48.524;9.056;2022-11-21T11:11:45;7.70;;;2.50;;
505;SDS011;551;48.524;9.056;2022-11-21T11:14:11;4.07;;;2.37;;
505;SDS011;551;48.524;9.056;2022-11-21T11:16:41;7.90;;;2.60;;
505;SDS011;551;48.524;9.056;2022-11-21T11:24:22;4.57;;;2.33;;
505;SDS011;551;48.524;9.056;2022-11-21T11:26:52;4.50;;;1.53;;
505;SDS011;551;48.524;9.056;2022-11-21T11:29:27;3.00;;;2.30;;
505;SDS011;551;48.524;9.056;2022-11-21T11:34:25;5.47;;;1.80;;
505;SDS011;551;48.524;9.056;2022-11-21T11:37:04;7.63;;;2.23;;
505;SDS011;551;48.524;9.056;2022-11-21T11:42:26;3.10;;;1.70;;
505;SDS011;551;48.524;9.056;2022-11-21T11:45:29;3.23;;;1.70;;
505;SDS011;551;48.524;9.056;2022-11-21T11:48:13;3.77;;;2.00;;
505;SDS011;551;48.524;9.056;2022-11-21T11:50:41;1.50;;;1.37;;
505;SDS011;551;48.524;9.056;2022-11-21T11:53:32;3.80;;;1.57;;
505;SDS011;551;48.524;9.056;2022-11-21T11:56:06;5.50;;;1.87;;
505;SDS011;551;48.524;9.056;2022-11-21T11:58:54;2.10;;;1.63;;
505;SDS011;551;48.524;9.056;2022-11-21T12:04:34;4.93;;;2.07;;
505;SDS011;551;48.524;9.056;2022-11-21T12:12:02;3.73;;;1.80;;
505;SDS011;551;48.524;9.056;2022-11-21T12:17:43;3.40;;;1.60;;
505;SDS011;551;48.524;9.056;2022-11-21T12:20:35;5.60;;;2.43;;
505;SDS011;551;48.524;9.056;2022-11-21T12:23:20;2.80;;;1.50;;
505;SDS011;551;48.524;9.056;2022-11-21T12:28:34;4.20;;;1.37;;
505;SDS011;551;48.524;9.056;2022-11-21T12:31:53;4.23;;;1.67;;
505;SDS011;551;48.524;9.056;2022-11-21T12:36:56;4.53;;;1.83;;
505;SDS011;551;48.524;9.056;2022-11-21T12:39:42;3.50;;;1.60;;
505;SDS011;551;48.524;9.056;2022-11-21T12:42:58;4.20;;;1.70;;
505;SDS011;551;48.524;9.056;2022-11-21T12:45:29;2.27;;;1.77;;
505;SDS011;551;48.524;9.056;2022-11-21T12:57:10;3.00;;;2.00;;
505;SDS011;551;48.524;9.056;2022-11-21T13:02:45;9.30;;;2.33;;
505;SDS011;551;48.524;9.056;2022-11-21T13:05:34;4.67;;;2.50;;
505;SDS011;551;48.524;9.056;2022-11-21T13:08:05;5.53;;;2.00;;
505;SDS011;551;48.524;9.056;2022-11-21T13:10:34;6.40;;;2.23;;
505;SDS011;551;48.524;9.056;2022-11-21T13:13:12;4.10;;;2.33;;
505;SDS011;551;48.524;9.056;2022-11-21T13:15:47;2.47;;;1.70;;
505;SDS011;551;48.524;9.056;2022-11-21T13:18:24;7.20;;;2.50;;
505;SDS011;551;48.524;9.056;2022-11-21T13:20:55;4.20;;;1.67;;
505;SDS011;551;48.524;9.056;2022-11-21T13:26:00;3.97;;;2.00;;
505;SDS011;551;48.524;9.056;2022-11-21T13:28:30;4.75;;;1.92;;
505;SDS011;551;48.524;9.056;2022-11-21T13:30:58;9.03;;;2.87;;
505;SDS011;551;48.524;9.056;2022-11-21T13:36:10;5.37;;;2.03;;
505;SDS011;551;48.524;9.056;2022-11-21T13:44:28;6.10;;;2.27;;
505;SDS011;551;48.524;9.056;2022-11-21T13:52:35;3.33;;;2.17;;
505;SDS011;551;48.524;9.056;2022-11-21T13:55:24;8.13;;;2.27;;
505;SDS011;551;48.524;9.056;2022-11-21T14:03:59;2.63;;;1.53;;
505;SDS011;551;48.524;9.056;2022-11-21T14:06:18;7.90;;;2.47;;
505;SDS011;551;48.524;9.056;2022-11-21T14:12:01;3.87;;;2.03;;
505;SDS011;551;48.524;9.056;2022-11-21T14:19:45;4.10;;;2.90;;
505;SDS011;551;48.524;9.056;2022-11-21T14:22:14;6.17;;;2.60;;
505;SDS011;551;48.524;9.056;2022-11-21T14:24:49;5.17;;;1.70;;
505;SDS011;551;48.524;9.056;2022-11-21T14:27:20;17.90;;;2.37;;
505;SDS011;551;48.524;9.056;2022-11-21T14:29:56;7.50;;;2.70;;
505;SDS011;551;48.524;9.056;2022-11-21T14:32:28;6.90;;;2.13;;
505;SDS011;551;48.524;9.056;2022-11-21T14:35:10;6.13;;;2.13;;
505;SDS011;551;48.524;9.056;2022-11-21T14:37:44;7.30;;;2.60;;
505;SDS011;551;48.524;9.056;2022-11-21T14:40:12;5.17;;;2.03;;
505;SDS011;551;48.524;9.056;2022-11-21T14:42:45;7.23;;;3.27;;
505;SDS011;551;48.524;9.056;2022-11-21T14:45:17;10.77;;;3.20;;
505;SDS011;551;48.524;9.056;2022-11-21T14:47:51;5.67;;;2.77;;
505;SDS011;551;48.524;9.056;2022-11-21T14:50:21;7.00;;;2.43;;
505;SDS011;551;48.524;9.056;2022-11-21T14:52:47;3.30;;;2.17;;
505;SDS011;551;48.524;9.056;2022-11-21T14:55:21;6.60;;;2.80;;
505;SDS011;551;48.524;9.056;2022-11-21T14:57:53;12.80;;;3.03;;
505;SDS011;551;48.524;9.056;2022-11-21T15:00:21;5.17;;;2.53;;
505;SDS011;551;48.524;9.056;2022-11-21T15:02:56;4.23;;;2.40;;
505;SDS011;551;48.524;9.056;2022-11-21T15:05:29;6.23;;;2.30;;
505;SDS011;551;48.524;9.056;2022-11-21T15:07:57;3.17;;;1.77;;
505;SDS011;551;48.524;9.056;2022-11-21T15:10:24;2.80;;;2.23;;
505;SDS011;551;48.524;9.056;2022-11-21T15:12:57;10.93;;;3.70;;
505;SDS011;551;48.524;9.056;2022-11-21T15:15:42;5.40;;;2.63;;
505;SDS011;551;48.524;9.056;2022-11-21T15:18:18;12.23;;;3.00;;
505;SDS011;551;48.524;9.056;2022-11-21T15:20:48;6.40;;;2.93;;
505;SDS011;551;48.524;9.056;2022-11-21T15:25:56;6.97;;;2.63;;
505;SDS011;551;48.524;9.056;2022-11-21T15:28:22;6.57;;;3.10;;
505;SDS011;551;48.524;9.056;2022-11-21T15:31:12;3.37;;;2.63;;
505;SDS011;551;48.524;9.056;2022-11-21T15:33:57;7.10;;;3.17;;
505;SDS011;551;48.524;9.056;2022-11-21T15:36:27;6.80;;;3.37;;
505;SDS011;551;48.524;9.056;2022-11-21T15:38:54;8.53;;;3.20;;
505;SDS011;551;48.524;9.056;2022-11-21T15:41:24;6.00;;;3.13;;
505;SDS011;551;48.524;9.056;2022-11-21T15:46:26;7.67;;;2.87;;
505;SDS011;551;48.524;9.056;2022-11-21T15:49:01;8.43;;;3.50;;
505;SDS011;551;48.524;9.056;2022-11-21T15:51:36;12.63;;;3.13;;
505;SDS011;551;48.524;9.056;2022-11-21T15:54:03;9.03;;;3.57;;
505;SDS011;551;48.524;9.056;2022-11-21T15:56:29;9.03;;;4.60;;
505;SDS011;551;48.524;9.056;2022-11-21T15:58:55;8.10;;;4.90;;
505;SDS011;551;48.524;9.056;2022-11-21T16:01:21;18.50;;;3.87;;
505;SDS011;551;48.524;9.056;2022-11-21T16:03:53;9.03;;;3.47;;
505;SDS011;551;48.524;9.056;2022-11-21T16:06:21;8.50;;;3.30;;
505;SDS011;551;48.524;9.056;2022-11-21T16:08:47;8.37;;;3.60;;
505;SDS011;551;48.524;9.056;2022-11-21T16:11:29;7.53;;;3.83;;
505;SDS011;551;48.524;9.056;2022-11-21T16:13:59;9.10;;;3.87;;
505;SDS011;551;48.524;9.056;2022-11-21T16:16:27;6.57;;;3.50;;
505;SDS011;551;48.524;9.056;2022-11-21T16:19:11;7.77;;;3.80;;
505;SDS011;551;48.524;9.056;2022-11-21T16:21:38;8.27;;;3.50;;
505;SDS011;551;48.524;9.056;2022-11-21T16:24:03;11.70;;;4.17;;
505;SDS011;551;48.524;9.056;2022-11-21T16:26:29;8.00;;;3.93;;
505;SDS011;551;48.524;9.056;2022-11-21T16:28:55;10.00;;;3.83;;
505;SDS011;551;48.524;9.056;2022-11-21T16:31:22;5.93;;;3.77;;
505;SDS011;551;48.524;9.056;2022-11-21T16:33:52;8.03;;;3.47;;
505;SDS011;551;48.524;9.056;2022-11-21T16:36:19;6.60;;;3.47;;
505;SDS011;551;48.524;9.056;2022-11-21T16:38:48;5.97;;;3.37;;
505;SDS011;551;48.524;9.056;2022-11-21T16:41:18;10.40;;;3.43;;
505;SDS011;551;48.524;9.056;2022-11-21T16:43:46;9.30;;;3.40;;
505;SDS011;551;48.524;9.056;2022-11-21T16:46:13;12.53;;;3.80;;
505;SDS011;551;48.524;9.056;2022-11-21T16:48:39;4.10;;;3.07;;
505;SDS011;551;48.524;9.056;2022-11-21T16:53:42;7.00;;;3.97;;
505;SDS011;551;48.524;9.056;2022-11-21T16:56:12;9.13;;;3.33;;
505;SDS011;551;48.524;9.056;2022-11-21T16:58:39;5.87;;;3.27;;
505;SDS011;551;48.524;9.056;2022-11-21T17:01:06;8.80;;;3.90;;
505;SDS011;551;48.524;9.056;2022-11-21T17:03:32;9.00;;;3.90;;
505;SDS011;551;48.524;9.056;2022-11-21T17:05:58;7.50;;;3.80;;
505;SDS011;551;48.524;9.056;2022-11-21T17:08:24;4.47;;;3.20;;
505;SDS011;551;48.524;9.056;2022-11-21T17:10:51;6.27;;;3.10;;
505;SDS011;551;48.524;9.056;2022-11-21T17:13:16;5.30;;;4.10;;
505;SDS011;551;48.524;9.056;2022-11-21T17:15:42;11.33;;;4.30;;
505;SDS011;551;48.524;9.056;2022-11-21T17:18:08;5.10;;;3.27;;
505;SDS011;551;48.524;9.056;2022-11-21T17:20:34;7.10;;;4.53;;
505;SDS011;551;48.524;9.056;2022-11-21T17:22:59;8.53;;;3.90;;
505;SDS011;551;48.524;9.056;2022-11-21T17:25:26;11.60;;;4.83;;
505;SDS011;551;48.524;9.056;2022-11-21T17:27:52;9.00;;;3.73;;
505;SDS011;551;48.524;9.056;2022-11-21T17:30:18;10.40;;;4.40;;
505;SDS011;551;48.524;9.056;2022-11-21T17:32:43;7.00;;;4.53;;
505;SDS011;551;48.524;9.056;2022-11-21T17:35:09;7.00;;;4.83;;
505;SDS011;551;48.524;9.056;2022-11-21T17:37:35;6.77;;;5.20;;
505;SDS011;551;48.524;9.056;2022-11-21T17:40:01;14.07;;;6.60;;
505;SDS011;551;48.524;9.056;2022-11-21T17:42:27;13.90;;;5.97;;
505;SDS011;551;48.524;9.056;2022-11-21T17:44:52;16.83;;;7.10;;
505;SDS011;551;48.524;9.056;2022-11-21T17:47:18;8.60;;;4.67;;
505;SDS011;551;48.524;9.056;2022-11-21T17:49:44;10.30;;;5.40;;
505;SDS011;551;48.524;9.056;2022-11-21T17:52:09;11.53;;;6.10;;
505;SDS011;551;48.524;9.056;2022-11-21T17:54:35;20.53;;;8.33;;
505;SDS011;551;48.524;9.056;2022-11-21T17:57:00;12.17;;;7.03;;
505;SDS011;551;48.524;9.056;2022-11-21T17:59:26;15.73;;;6.27;;
505;SDS011;551;48.524;9.056;2022-11-21T18:01:52;17.30;;;5.93;;